»·PEaware :: N434EP KACV-KMFR

N434EP :: KACV-KMFR

FLIGHT INFORMATION

Flight Status: Arrived
Operator: Privately registered:
United States
More flights under this callsign
Pilot: Drew Hood (3199)
Aircraft: Unknown
(EVIC)
More flights by this aircraft type
Origin: KACV Arcata
United States
Destination: KMFR Rogue Valley Intl-Medford
United States
More flights between these airports :: More routes between these airports
Route: +CEC V122 OED
File this flight plan on PilotEdge
Remarks:
Altitude:
(Current/Filed)
10,000ft
Speed:
(Current/Filed)
290kts
Departed: 20-Mar-17 04:16 PM
Arrived: 20-Mar-17 04:54 PM
Distance/Time
Traveled:
100nm/0:38
Distance/Time
To Go:
Arrived

Flight Plot

Page will automatically refresh every two minutes.

Flight plan parsing failed; only flown route is shown


Map Options




Map Legend


Flown Route
Filed Route
Departure Airport
Arrival Airport
Navaid (VOR, NDB)
Fix

Horizontal Profiles

Position Reports

Time Latitude Longitude Heading Altitude Ground
Speed
20-Mar-17 16:01 40.974048 -124.108216 267 225ft 0kts
20-Mar-17 16:02 40.974048 -124.108216 267 225ft 0kts
20-Mar-17 16:03 40.974048 -124.108216 267 225ft 0kts
20-Mar-17 16:04 40.974048 -124.108216 267 225ft 0kts
20-Mar-17 16:05 40.974048 -124.108216 267 225ft 0kts
20-Mar-17 16:06 40.974048 -124.108216 267 225ft 0kts
20-Mar-17 16:07 40.974048 -124.108216 267 225ft 0kts
20-Mar-17 16:08 40.974048 -124.108216 267 225ft 0kts
20-Mar-17 16:09 40.974048 -124.108216 267 225ft 0kts
20-Mar-17 16:10 40.974048 -124.108216 267 225ft 0kts
20-Mar-17 16:11 40.974048 -124.108216 267 225ft 0kts
20-Mar-17 16:12 40.974048 -124.108216 267 225ft 0kts
20-Mar-17 16:13 40.974032 -124.108389 267 225ft 4kts
20-Mar-17 16:14 40.977422 -124.109022 337 225ft 12kts
20-Mar-17 16:15 40.981327 -124.111663 332 225ft 17kts
20-Mar-17 16:16 40.985008 -124.113340 80 225ft 7kts
20-Mar-17 16:17 40.983329 -124.111823 152 225ft 57kts
20-Mar-17 16:18 40.962886 -124.113447 301 2245ft 137kts
20-Mar-17 16:19 40.982561 -124.162633 256 4489ft 154kts
20-Mar-17 16:20 40.978206 -124.218664 259 6797ft 158kts
20-Mar-17 16:21 41.004347 -124.252988 13 8909ft 204kts
20-Mar-17 16:22 41.066586 -124.239110 359 9967ft 251kts
20-Mar-17 16:23 41.143213 -124.235338 356 9983ft 299kts
20-Mar-17 16:24 41.228004 -124.237332 354 9978ft 310kts
20-Mar-17 16:25 41.314339 -124.238229 355 9977ft 312kts
20-Mar-17 16:26 41.401057 -124.238760 355 9977ft 312kts
20-Mar-17 16:27 41.487880 -124.239274 355 9977ft 313kts
20-Mar-17 16:28 41.574618 -124.239787 355 9977ft 312kts
20-Mar-17 16:29 41.661605 -124.240288 355 9978ft 312kts
20-Mar-17 16:30 41.747959 -124.240786 355 9978ft 312kts
20-Mar-17 16:31 41.815660 -124.173165 53 9998ft 325kts
20-Mar-17 16:32 41.868465 -124.075585 54 10130ft 323kts
20-Mar-17 16:33 41.920798 -123.977686 54 10142ft 324kts
20-Mar-17 16:34 41.973192 -123.879437 54 10143ft 325kts
20-Mar-17 16:35 42.025672 -123.780560 54 10133ft 326kts
20-Mar-17 16:36 42.078184 -123.681439 54 10038ft 327kts
20-Mar-17 16:37 42.129103 -123.585004 54 10032ft 326kts
20-Mar-17 16:38 42.181163 -123.485870 54 10033ft 324kts
20-Mar-17 16:39 42.228924 -123.394947 55 10035ft 278kts
20-Mar-17 16:40 42.228282 -123.314419 147 10037ft 238kts
20-Mar-17 16:41 42.177255 -123.255610 140 10031ft 249kts
20-Mar-17 16:42 42.131858 -123.186341 125 9656ft 252kts
20-Mar-17 16:43 42.107652 -123.099318 112 9327ft 242kts
20-Mar-17 16:44 42.087922 -123.015214 109 9330ft 234kts
20-Mar-17 16:45 42.075903 -122.925141 99 9334ft 257kts
20-Mar-17 16:46 42.082986 -122.828330 74 9332ft 268kts
20-Mar-17 16:47 42.109310 -122.735810 47 9301ft 263kts
20-Mar-17 16:48 42.169721 -122.741999 324 9333ft 231kts
20-Mar-17 16:49 42.218680 -122.791857 301 7965ft 216kts
20-Mar-17 16:50 42.273210 -122.815295 327 6207ft 229kts
20-Mar-17 16:51 42.294024 -122.860053 172 3288ft 178kts
20-Mar-17 16:52 42.309167 -122.848159 19 2592ft 148kts
20-Mar-17 16:53 42.340474 -122.855300 337 1908ft 101kts
20-Mar-17 16:54 42.365545 -122.868356 337 1347ft 83kts
20-Mar-17 16:55 42.372763 -122.873659 162 1338ft 8kts
20-Mar-17 16:56 42.371944 -122.874919 162 1338ft 10kts

Navigation Log

Ident Type
Flight plan parsing failed, navigation log unavailable